createdAt,value
2022-12-17T00:02:42.492Z,100.00
2022-12-17T00:05:28.079Z,100.00
2022-12-17T00:08:17.602Z,100.00
2022-12-17T00:11:03.287Z,100.00
2022-12-17T00:13:49.061Z,100.00
2022-12-17T00:16:36.241Z,100.00
2022-12-17T00:19:21.985Z,100.00
2022-12-17T00:22:07.379Z,100.00
2022-12-17T00:24:52.686Z,100.00
2022-12-17T00:27:41.590Z,100.00
2022-12-17T00:30:28.008Z,100.00
2022-12-17T00:33:15.040Z,100.00
2022-12-17T00:36:01.673Z,100.00
2022-12-17T00:38:47.056Z,100.00
2022-12-17T00:41:32.191Z,100.00
2022-12-17T00:44:17.506Z,100.00
2022-12-17T00:47:02.900Z,100.00
2022-12-17T00:49:49.849Z,100.00
2022-12-17T00:52:35.164Z,100.00
2022-12-17T00:55:20.406Z,100.00
2022-12-17T00:58:10.521Z,100.00
2022-12-17T01:00:56.022Z,100.00
2022-12-17T01:03:41.934Z,100.00
2022-12-17T01:06:28.715Z,100.00
2022-12-17T01:09:14.686Z,100.00
2022-12-17T01:12:00.520Z,100.00
2022-12-17T01:14:46.506Z,100.00
2022-12-17T01:17:32.429Z,100.00
2022-12-17T01:20:17.769Z,100.00
2022-12-17T01:23:05.316Z,100.00
2022-12-17T01:25:50.645Z,100.00
2022-12-17T01:28:41.532Z,100.00
2022-12-17T01:31:31.390Z,100.00
2022-12-17T01:34:20.218Z,100.00
2022-12-17T01:37:06.499Z,100.00
2022-12-17T01:40:01.977Z,100.00
2022-12-17T01:42:56.616Z,100.00
2022-12-17T01:45:42.231Z,100.00
2022-12-17T01:48:33.554Z,100.00
2022-12-17T01:51:19.228Z,100.00
2022-12-17T01:54:08.563Z,100.00
2022-12-17T01:56:59.617Z,100.00
2022-12-17T01:59:55.000Z,100.00
2022-12-17T02:02:40.461Z,100.00
2022-12-17T02:05:26.572Z,100.00
2022-12-17T02:08:21.601Z,100.00
2022-12-17T02:11:16.198Z,100.00
2022-12-17T02:14:25.210Z,100.00
2022-12-17T02:17:13.977Z,100.00
2022-12-17T02:20:09.037Z,100.00
2022-12-17T02:23:04.515Z,100.00
2022-12-17T02:25:58.389Z,100.00
2022-12-17T02:28:46.901Z,100.00
2022-12-17T02:31:35.219Z,100.00
2022-12-17T02:34:20.900Z,100.00
2022-12-17T02:37:08.402Z,100.00
2022-12-17T02:39:56.410Z,100.00
2022-12-17T02:42:44.851Z,100.00
2022-12-17T02:45:42.212Z,100.00
2022-12-17T02:48:30.652Z,100.00
2022-12-17T02:51:17.125Z,100.00
2022-12-17T02:54:04.483Z,100.00
2022-12-17T02:56:59.107Z,100.00
2022-12-17T02:59:44.307Z,100.00
2022-12-17T03:02:35.826Z,100.00
2022-12-17T03:05:43.948Z,100.00
2022-12-17T03:08:27.458Z,100.00
2022-12-17T03:11:13.043Z,100.00
2022-12-17T03:13:58.625Z,100.00
2022-12-17T03:16:44.062Z,100.00
2022-12-17T03:19:31.449Z,100.00
2022-12-17T03:22:16.866Z,100.00
2022-12-17T03:25:02.366Z,100.00
2022-12-17T03:27:47.747Z,100.00
2022-12-17T03:30:36.390Z,100.00
2022-12-17T03:33:23.094Z,100.00
2022-12-17T03:36:12.169Z,100.00
2022-12-17T03:38:58.105Z,100.00
2022-12-17T03:41:43.547Z,100.00
2022-12-17T03:44:29.422Z,100.00
2022-12-17T03:47:15.003Z,100.00
2022-12-17T03:50:00.416Z,100.00
2022-12-17T03:52:47.660Z,100.00
2022-12-17T03:55:33.607Z,100.00
2022-12-17T03:58:19.112Z,100.00
2022-12-17T04:01:05.042Z,100.00
2022-12-17T04:03:50.458Z,100.00
2022-12-17T04:06:35.846Z,100.00
2022-12-17T04:09:31.312Z,100.00
2022-12-17T04:12:17.272Z,100.00
2022-12-17T04:15:02.545Z,100.00
2022-12-17T04:17:44.629Z,100.00
2022-12-17T04:20:30.510Z,100.00
2022-12-17T04:23:15.953Z,100.00
2022-12-17T04:26:03.028Z,100.00
2022-12-17T04:28:48.768Z,100.00
2022-12-17T04:31:34.758Z,100.00
2022-12-17T04:34:20.108Z,100.00
2022-12-17T04:37:05.387Z,100.00
2022-12-17T04:39:51.315Z,100.00
2022-12-17T04:42:39.285Z,100.00
2022-12-17T04:45:25.700Z,100.00
2022-12-17T04:48:19.639Z,100.00
2022-12-17T04:51:05.270Z,100.00
2022-12-17T04:53:50.700Z,100.00
2022-12-17T04:56:36.053Z,100.00
2022-12-17T04:59:20.033Z,100.00
2022-12-17T05:02:05.450Z,100.00
2022-12-17T05:04:50.849Z,100.00
2022-12-17T05:07:36.534Z,100.00
2022-12-17T05:10:22.523Z,100.00
2022-12-17T05:13:15.115Z,100.00
2022-12-17T05:16:02.123Z,100.00
2022-12-17T05:18:47.212Z,100.00
2022-12-17T05:21:33.657Z,100.00
2022-12-17T05:24:19.550Z,100.00
2022-12-17T05:27:04.901Z,100.00
2022-12-17T05:29:50.797Z,100.00
2022-12-17T05:32:37.652Z,100.00
2022-12-17T05:35:23.471Z,100.00
2022-12-17T05:38:08.968Z,100.00
2022-12-17T05:40:54.653Z,100.00
2022-12-17T05:43:40.223Z,100.00
2022-12-17T05:46:26.114Z,100.00
2022-12-17T05:49:13.213Z,100.00
2022-12-17T05:51:59.012Z,100.00
2022-12-17T05:54:44.384Z,100.00
2022-12-17T05:57:29.865Z,100.00
2022-12-17T06:00:15.734Z,100.00
2022-12-17T06:03:01.311Z,100.00
2022-12-17T06:05:48.419Z,100.00
2022-12-17T06:08:34.286Z,100.00
2022-12-17T06:11:20.206Z,100.00
2022-12-17T06:14:20.733Z,100.00
2022-12-17T06:17:06.650Z,100.00
2022-12-17T06:19:52.491Z,100.00
2022-12-17T06:22:39.374Z,100.00
2022-12-17T06:25:25.339Z,100.00
2022-12-17T06:28:16.807Z,100.00
2022-12-17T06:31:02.204Z,100.00
2022-12-17T06:33:47.952Z,100.00
2022-12-17T06:36:33.666Z,100.00
2022-12-17T06:39:20.649Z,100.00
2022-12-17T06:42:06.018Z,100.00
2022-12-17T06:44:51.361Z,100.00
2022-12-17T06:47:37.203Z,100.00
2022-12-17T06:50:24.085Z,100.00
2022-12-17T06:53:17.460Z,100.00
2022-12-17T06:56:04.601Z,100.00
2022-12-17T06:58:50.089Z,100.00
2022-12-17T07:01:35.752Z,100.00
2022-12-17T07:04:22.271Z,100.00
2022-12-17T07:07:07.665Z,100.00
2022-12-17T07:09:53.681Z,100.00
2022-12-17T07:12:41.150Z,100.00
2022-12-17T07:15:27.529Z,100.00
2022-12-17T07:18:14.539Z,100.00
2022-12-17T07:21:00.289Z,100.00
2022-12-17T07:23:45.755Z,100.00
2022-12-17T07:26:27.748Z,100.00
2022-12-17T07:29:17.188Z,100.00
2022-12-17T07:32:02.681Z,100.00
2022-12-17T07:34:48.013Z,100.00
2022-12-17T07:37:34.134Z,100.00
2022-12-17T07:40:19.582Z,100.00
2022-12-17T07:43:05.247Z,100.00
2022-12-17T07:45:51.961Z,100.00
2022-12-17T07:48:37.273Z,100.00
2022-12-17T07:51:23.021Z,100.00
2022-12-17T07:54:08.380Z,100.00
2022-12-17T07:56:53.734Z,100.00
2022-12-17T07:59:39.111Z,100.00
2022-12-17T08:02:28.202Z,100.00
2022-12-17T08:05:13.705Z,100.00
2022-12-17T08:07:59.087Z,100.00
2022-12-17T08:10:44.560Z,100.00
2022-12-17T08:13:29.959Z,100.00
2022-12-17T08:16:15.377Z,100.00
2022-12-17T08:18:58.871Z,100.00
2022-12-17T08:21:44.163Z,100.00
2022-12-17T08:24:34.735Z,100.00
2022-12-17T08:27:20.349Z,100.00
2022-12-17T08:30:07.571Z,100.00
2022-12-17T08:32:53.345Z,100.00
2022-12-17T08:35:40.332Z,100.00
2022-12-17T08:38:25.860Z,100.00
2022-12-17T08:41:11.119Z,100.00
2022-12-17T08:43:57.094Z,100.00
2022-12-17T08:46:42.471Z,100.00
2022-12-17T08:49:27.889Z,100.00
2022-12-17T08:52:29.480Z,100.00
2022-12-17T08:55:14.945Z,100.00
2022-12-17T08:58:00.562Z,100.00
2022-12-17T09:00:46.322Z,100.00
2022-12-17T09:03:31.838Z,100.00
2022-12-17T09:06:17.543Z,100.00
2022-12-17T09:09:04.179Z,100.00
2022-12-17T09:11:49.662Z,100.00
2022-12-17T09:14:35.127Z,100.00
2022-12-17T09:17:20.464Z,100.00
2022-12-17T09:20:05.721Z,100.00
2022-12-17T09:22:47.663Z,100.00
2022-12-17T09:25:34.732Z,100.00
2022-12-17T09:28:20.699Z,100.00
2022-12-17T09:31:07.009Z,100.00
2022-12-17T09:33:52.995Z,100.00
2022-12-17T09:36:38.593Z,100.00
2022-12-17T09:39:24.430Z,100.00
2022-12-17T09:42:18.471Z,100.00
2022-12-17T09:45:09.772Z,100.00
2022-12-17T09:48:06.756Z,100.00
2022-12-17T09:50:52.750Z,100.00
2022-12-17T09:53:42.867Z,100.00
2022-12-17T09:56:31.337Z,100.00
2022-12-17T09:59:18.597Z,100.00
2022-12-17T10:02:04.549Z,100.00
2022-12-17T10:04:53.739Z,100.00
2022-12-17T10:07:42.591Z,100.00
2022-12-17T10:10:37.221Z,100.00
2022-12-17T10:13:29.673Z,100.00
2022-12-17T10:16:17.176Z,100.00
2022-12-17T10:19:03.599Z,100.00
2022-12-17T10:21:49.615Z,100.00
2022-12-17T10:24:35.196Z,100.00
2022-12-17T10:27:28.454Z,100.00
2022-12-17T10:30:22.677Z,100.00
2022-12-17T10:33:15.257Z,100.00
2022-12-17T10:36:01.150Z,100.00
2022-12-17T10:38:48.390Z,100.00
2022-12-17T10:41:42.588Z,100.00
2022-12-17T10:44:42.869Z,100.00
2022-12-17T10:47:33.258Z,100.00
2022-12-17T10:50:22.007Z,100.00
2022-12-17T10:53:07.954Z,100.00
2022-12-17T10:55:54.843Z,100.00
2022-12-17T10:58:43.707Z,100.00
2022-12-17T11:01:31.598Z,100.00
2022-12-17T11:04:17.921Z,100.00
2022-12-17T11:07:07.506Z,100.00
2022-12-17T11:10:08.679Z,100.00
2022-12-17T11:12:58.631Z,100.00
2022-12-17T11:15:50.950Z,100.00
2022-12-17T11:18:40.967Z,100.00
2022-12-17T11:21:30.809Z,100.00
2022-12-17T11:24:22.476Z,100.00
2022-12-17T11:27:12.487Z,100.00
2022-12-17T11:30:01.288Z,100.00
2022-12-17T11:33:09.031Z,100.00
2022-12-17T11:36:06.462Z,100.00
2022-12-17T11:38:57.218Z,100.00
2022-12-17T11:41:58.602Z,100.00
2022-12-17T11:45:00.505Z,100.00
2022-12-17T11:47:59.076Z,100.00
2022-12-17T11:50:52.229Z,100.00
2022-12-17T11:53:56.861Z,100.00
2022-12-17T11:56:46.165Z,100.00
2022-12-17T11:59:50.928Z,100.00
2022-12-17T12:02:56.887Z,100.00
2022-12-17T12:05:59.358Z,100.00
2022-12-17T12:08:48.461Z,100.00
2022-12-17T12:11:46.428Z,100.00
2022-12-17T12:14:47.673Z,100.00
2022-12-17T12:18:00.261Z,100.00
2022-12-17T12:21:02.688Z,100.00
2022-12-17T12:24:01.108Z,100.00
2022-12-17T12:26:52.150Z,100.00
2022-12-17T12:29:49.495Z,100.00
2022-12-17T12:32:51.888Z,100.00
2022-12-17T12:35:42.488Z,100.00
2022-12-17T12:38:40.502Z,100.00
2022-12-17T12:41:39.483Z,100.00
2022-12-17T12:44:34.936Z,100.00
2022-12-17T12:47:28.320Z,100.00
2022-12-17T12:50:20.763Z,100.00
2022-12-17T12:53:06.638Z,100.00
2022-12-17T12:55:57.636Z,100.00
2022-12-17T12:58:45.814Z,100.00
2022-12-17T13:01:32.022Z,100.00
2022-12-17T13:04:21.044Z,100.00
2022-12-17T13:06:50.913Z,100.00
2022-12-17T13:09:38.736Z,100.00
2022-12-17T13:12:23.760Z,100.00
2022-12-17T13:14:56.500Z,100.00
2022-12-17T13:17:33.661Z,100.00
2022-12-17T13:20:20.504Z,100.00
2022-12-17T13:22:53.975Z,100.00
2022-12-17T13:25:24.355Z,100.00
2022-12-17T13:27:52.730Z,100.00
2022-12-17T13:30:24.264Z,100.00
2022-12-17T13:33:02.491Z,99.71
2022-12-17T13:35:42.928Z,99.92
2022-12-17T13:38:21.693Z,99.95
2022-12-17T13:41:09.776Z,97.63
2022-12-17T13:43:45.226Z,97.66
2022-12-17T13:46:21.962Z,97.12
2022-12-17T13:48:54.448Z,97.62
2022-12-17T13:51:25.491Z,98.43
2022-12-17T13:53:55.046Z,97.32
2022-12-17T13:56:25.482Z,97.83
2022-12-17T13:58:55.770Z,95.36
2022-12-17T14:01:26.320Z,95.00
2022-12-17T14:04:06.227Z,96.96
2022-12-17T14:06:39.413Z,92.61
2022-12-17T14:09:08.013Z,96.81
2022-12-17T14:11:56.286Z,98.22
2022-12-17T14:14:30.148Z,97.30
2022-12-17T14:16:58.412Z,97.51
2022-12-17T14:19:27.819Z,100.00
2022-12-17T14:21:57.711Z,100.00
2022-12-17T14:24:29.514Z,100.00
2022-12-17T14:26:59.853Z,100.00
2022-12-17T14:29:30.171Z,100.00
2022-12-17T14:32:00.499Z,100.00
2022-12-17T14:34:30.096Z,100.00
2022-12-17T14:37:01.238Z,100.00
2022-12-17T14:39:31.990Z,100.00
2022-12-17T14:42:25.691Z,100.00
2022-12-17T14:44:55.735Z,100.00
2022-12-17T14:47:26.147Z,100.00
2022-12-17T14:50:02.142Z,100.00
2022-12-17T14:52:41.248Z,100.00
2022-12-17T14:55:55.504Z,100.00
2022-12-17T14:58:25.756Z,100.00
2022-12-17T15:00:57.089Z,100.00
2022-12-17T15:03:28.408Z,100.00
2022-12-17T15:06:00.046Z,100.00
2022-12-17T15:08:32.078Z,100.00
2022-12-17T15:11:00.199Z,100.00
2022-12-17T15:13:28.617Z,100.00
2022-12-17T15:15:57.495Z,100.00
2022-12-17T15:18:25.825Z,100.00
2022-12-17T15:20:54.355Z,100.00
2022-12-17T15:23:24.385Z,100.00
2022-12-17T15:25:55.216Z,100.00
2022-12-17T15:28:24.330Z,100.00
2022-12-17T15:30:52.610Z,100.00
2022-12-17T15:33:20.877Z,100.00
2022-12-17T15:35:49.017Z,100.00
2022-12-17T15:38:17.259Z,100.00
2022-12-17T15:40:45.617Z,100.00
2022-12-17T15:43:16.263Z,100.00
2022-12-17T15:45:46.665Z,100.00
2022-12-17T15:48:17.234Z,100.00
2022-12-17T15:50:45.663Z,100.00
2022-12-17T15:53:14.319Z,100.00
2022-12-17T15:55:43.164Z,100.00
2022-12-17T15:58:12.310Z,100.00
2022-12-17T16:00:42.648Z,100.00
2022-12-17T16:03:11.600Z,100.00
2022-12-17T16:05:40.405Z,100.00
2022-12-17T16:08:09.036Z,100.00
2022-12-17T16:10:38.392Z,100.00
2022-12-17T16:13:07.102Z,100.00
2022-12-17T16:15:35.856Z,100.00
2022-12-17T16:18:05.841Z,100.00
2022-12-17T16:20:34.433Z,100.00
2022-12-17T16:23:03.628Z,100.00
2022-12-17T16:25:32.597Z,100.00
2022-12-17T16:28:00.880Z,100.00
2022-12-17T16:30:29.152Z,100.00
2022-12-17T16:32:59.720Z,100.00
2022-12-17T16:35:31.029Z,100.00
2022-12-17T16:37:59.371Z,100.00
2022-12-17T16:40:29.857Z,100.00
2022-12-17T16:43:01.027Z,100.00
2022-12-17T16:45:29.854Z,100.00
2022-12-17T16:47:59.139Z,100.00
2022-12-17T16:50:31.445Z,100.00
2022-12-17T16:53:00.946Z,100.00
2022-12-17T16:55:30.053Z,100.00
2022-12-17T16:57:58.619Z,100.00
2022-12-17T17:00:27.283Z,100.00
2022-12-17T17:02:55.773Z,100.00
2022-12-17T17:05:24.165Z,100.00
2022-12-17T17:07:53.967Z,100.00
2022-12-17T17:10:22.207Z,100.00
2022-12-17T17:12:52.603Z,100.00
2022-12-17T17:15:20.895Z,100.00
2022-12-17T17:17:54.920Z,100.00
2022-12-17T17:20:24.343Z,100.00
2022-12-17T17:22:53.959Z,100.00
2022-12-17T17:25:23.006Z,100.00
2022-12-17T17:27:51.492Z,100.00
2022-12-17T17:30:20.121Z,100.00
2022-12-17T17:32:48.669Z,100.00
2022-12-17T17:35:17.110Z,100.00
2022-12-17T17:37:45.224Z,100.00
2022-12-17T17:40:15.874Z,100.00
2022-12-17T17:42:50.106Z,100.00
2022-12-17T17:45:20.356Z,100.00
2022-12-17T17:47:48.692Z,100.00
2022-12-17T17:50:17.492Z,100.00
2022-12-17T17:52:46.009Z,100.00
2022-12-17T17:55:15.834Z,100.00
2022-12-17T17:57:44.083Z,100.00
2022-12-17T18:00:13.685Z,100.00
2022-12-17T18:02:42.028Z,100.00
2022-12-17T18:05:11.146Z,100.00
2022-12-17T18:07:39.462Z,100.00
2022-12-17T18:10:09.127Z,100.00
2022-12-17T18:12:56.456Z,100.00
2022-12-17T18:15:24.780Z,100.00
2022-12-17T18:17:53.820Z,100.00
2022-12-17T18:20:23.031Z,100.00
2022-12-17T18:22:51.600Z,100.00
2022-12-17T18:25:20.006Z,100.00
2022-12-17T18:27:49.929Z,100.00
2022-12-17T18:30:18.208Z,100.00
2022-12-17T18:32:46.613Z,100.00
2022-12-17T18:35:16.874Z,100.00
2022-12-17T18:37:45.128Z,100.00
2022-12-17T18:40:14.574Z,100.00
2022-12-17T18:43:00.691Z,100.00
2022-12-17T18:45:30.902Z,100.00
2022-12-17T18:47:59.624Z,100.00
2022-12-17T18:50:28.013Z,100.00
2022-12-17T18:52:56.453Z,100.00
2022-12-17T18:55:25.070Z,100.00
2022-12-17T18:57:53.673Z,100.00
2022-12-17T19:00:22.457Z,100.00
2022-12-17T19:02:52.442Z,100.00
2022-12-17T19:05:20.786Z,100.00
2022-12-17T19:07:51.459Z,100.00
2022-12-17T19:10:21.998Z,100.00
2022-12-17T19:12:50.702Z,100.00
2022-12-17T19:15:19.535Z,100.00
2022-12-17T19:17:51.464Z,100.00
2022-12-17T19:20:21.733Z,100.00
2022-12-17T19:22:50.576Z,100.00
2022-12-17T19:25:20.696Z,100.00
2022-12-17T19:27:49.159Z,100.00
2022-12-17T19:30:17.675Z,100.00
2022-12-17T19:32:46.692Z,100.00
2022-12-17T19:35:16.011Z,100.00
2022-12-17T19:37:45.551Z,100.00
2022-12-17T19:40:14.738Z,100.00
2022-12-17T19:42:43.280Z,100.00
2022-12-17T19:45:12.947Z,100.00
2022-12-17T19:47:41.956Z,100.00
2022-12-17T19:50:11.605Z,100.00
2022-12-17T19:52:40.698Z,100.00
2022-12-17T19:55:11.477Z,100.00
2022-12-17T19:57:41.317Z,100.00
2022-12-17T20:00:11.766Z,100.00
2022-12-17T20:02:44.598Z,100.00
2022-12-17T20:05:13.275Z,100.00
2022-12-17T20:07:41.892Z,100.00
2022-12-17T20:10:11.618Z,100.00
2022-12-17T20:12:40.283Z,100.00
2022-12-17T20:15:09.969Z,100.00
2022-12-17T20:17:39.293Z,100.00
2022-12-17T20:20:08.722Z,100.00
2022-12-17T20:22:38.182Z,100.00
2022-12-17T20:25:11.888Z,100.00
2022-12-17T20:27:41.832Z,100.00
2022-12-17T20:30:11.254Z,100.00
2022-12-17T20:32:39.590Z,100.00
2022-12-17T20:35:09.398Z,100.00
2022-12-17T20:37:38.032Z,100.00
2022-12-17T20:40:08.677Z,100.00
2022-12-17T20:42:37.023Z,100.00
2022-12-17T20:45:07.937Z,100.00
2022-12-17T20:47:36.891Z,100.00
2022-12-17T20:50:06.570Z,100.00
2022-12-17T20:52:35.187Z,100.00
2022-12-17T20:55:03.913Z,100.00
2022-12-17T20:57:32.450Z,100.00
2022-12-17T21:00:00.966Z,100.00
2022-12-17T21:02:31.106Z,100.00
2022-12-17T21:04:59.437Z,100.00
2022-12-17T21:07:27.911Z,100.00
2022-12-17T21:09:56.793Z,100.00
2022-12-17T21:12:49.314Z,100.00
2022-12-17T21:15:17.735Z,100.00
2022-12-17T21:17:47.505Z,100.00
2022-12-17T21:20:16.730Z,100.00
2022-12-17T21:22:45.789Z,100.00
2022-12-17T21:25:13.855Z,100.00
2022-12-17T21:27:42.302Z,100.00
2022-12-17T21:30:13.369Z,100.00
2022-12-17T21:32:41.907Z,100.00
2022-12-17T21:35:12.393Z,100.00
2022-12-17T21:37:40.471Z,100.00
2022-12-17T21:40:10.348Z,100.00
2022-12-17T21:42:55.643Z,100.00
2022-12-17T21:45:23.826Z,100.00
2022-12-17T21:47:52.096Z,100.00
2022-12-17T21:50:21.571Z,100.00
2022-12-17T21:52:49.756Z,100.00
2022-12-17T21:55:17.919Z,100.00
2022-12-17T21:57:46.095Z,100.00
2022-12-17T22:00:15.294Z,100.00
2022-12-17T22:02:43.633Z,100.00
2022-12-17T22:05:17.576Z,100.00
2022-12-17T22:07:47.999Z,100.00
2022-12-17T22:10:33.451Z,100.00
2022-12-17T22:13:21.577Z,100.00
2022-12-17T22:15:49.679Z,100.00
2022-12-17T22:18:17.894Z,100.00
2022-12-17T22:20:46.144Z,100.00
2022-12-17T22:23:22.919Z,100.00
2022-12-17T22:25:51.457Z,100.00
2022-12-17T22:28:19.937Z,100.00
2022-12-17T22:31:05.572Z,100.00
2022-12-17T22:34:00.022Z,100.00
2022-12-17T22:36:53.203Z,100.00
2022-12-17T22:44:04.770Z,100.00
2022-12-17T22:44:49.496Z,100.00
2022-12-17T22:45:11.672Z,100.00
2022-12-17T22:47:40.469Z,100.00
2022-12-17T22:50:10.127Z,100.00
2022-12-17T22:52:39.015Z,100.00
2022-12-17T22:55:09.734Z,100.00
2022-12-17T22:57:38.862Z,100.00
2022-12-17T23:00:12.515Z,100.00
2022-12-17T23:02:40.845Z,100.00
2022-12-17T23:05:09.678Z,100.00
2022-12-17T23:07:38.312Z,100.00
2022-12-17T23:10:08.709Z,100.00
2022-12-17T23:12:51.624Z,100.00
2022-12-17T23:15:21.298Z,100.00
2022-12-17T23:17:49.766Z,100.00
2022-12-17T23:20:18.005Z,100.00
2022-12-17T23:22:46.112Z,100.00
2022-12-17T23:25:16.156Z,100.00
2022-12-17T23:27:44.892Z,100.00
2022-12-17T23:30:15.054Z,100.00
2022-12-17T23:32:43.751Z,100.00
2022-12-17T23:35:13.131Z,100.00
2022-12-17T23:37:41.666Z,100.00
2022-12-17T23:40:11.403Z,100.00
2022-12-17T23:42:41.229Z,100.00
2022-12-17T23:45:11.996Z,100.00
2022-12-17T23:47:42.164Z,100.00
2022-12-17T23:50:12.300Z,100.00
2022-12-17T23:52:40.570Z,100.00
2022-12-17T23:55:09.321Z,100.00
2022-12-17T23:57:37.442Z,100.00
